createdAt,value
2018-09-14T00:01:45.033Z,100900.11
2018-09-14T00:04:15.425Z,100901.72
2018-09-14T00:06:44.541Z,100901.34
2018-09-14T00:09:14.062Z,100900.28
2018-09-14T00:11:43.228Z,100906.22
2018-09-14T00:14:12.410Z,100901.50
2018-09-14T00:16:41.218Z,100900.06
2018-09-14T00:19:10.044Z,100900.92
2018-09-14T00:21:43.752Z,100893.41
2018-09-14T00:24:12.595Z,100897.53
2018-09-14T00:26:44.730Z,100898.77
2018-09-14T00:29:15.359Z,100897.05
2018-09-14T00:31:44.524Z,100893.48
2018-09-14T00:34:13.396Z,100894.30
2018-09-14T00:36:43.765Z,100891.27
2018-09-14T00:39:14.061Z,100884.15
2018-09-14T00:41:46.676Z,100884.15
2018-09-14T00:44:17.123Z,100877.86
2018-09-14T00:46:46.021Z,100876.28
2018-09-14T00:49:15.292Z,100873.62
2018-09-14T00:51:47.237Z,100868.91
2018-09-14T00:54:16.351Z,100868.78
2018-09-14T00:56:45.279Z,100873.14
2018-09-14T00:59:14.164Z,100874.23
2018-09-14T01:01:43.056Z,100878.37
2018-09-14T01:04:11.913Z,100879.78
2018-09-14T01:06:41.066Z,100883.17
2018-09-14T01:09:15.042Z,100884.50
2018-09-14T01:11:43.860Z,100885.12
2018-09-14T01:14:12.733Z,100881.48
2018-09-14T01:16:41.656Z,100885.75
2018-09-14T01:19:10.897Z,100900.50
2018-09-14T01:21:39.869Z,100896.38
2018-09-14T01:24:08.728Z,100889.27
2018-09-14T01:26:37.750Z,100888.66
2018-09-14T01:29:08.832Z,100890.46
2018-09-14T01:31:37.652Z,100881.39
2018-09-14T01:34:06.512Z,100879.43
2018-09-14T01:36:35.332Z,100882.72
2018-09-14T01:39:06.769Z,100874.59
2018-09-14T01:41:35.610Z,100876.05
2018-09-14T01:44:05.277Z,100874.34
2018-09-14T01:46:34.239Z,100878.23
2018-09-14T01:49:04.606Z,100874.11
2018-09-14T01:51:35.584Z,100873.89
2018-09-14T01:54:05.449Z,100870.72
2018-09-14T01:56:37.951Z,100872.08
2018-09-14T01:59:08.389Z,100869.75
2018-09-14T02:01:37.254Z,100876.90
2018-09-14T02:04:06.110Z,100867.70
2018-09-14T02:06:35.124Z,100872.80
2018-09-14T02:09:07.669Z,100875.45
2018-09-14T02:11:36.515Z,100872.56
2018-09-14T02:14:09.499Z,100865.69
2018-09-14T02:16:38.309Z,100874.02
2018-09-14T02:19:07.268Z,100864.71
2018-09-14T02:21:36.397Z,100872.19
2018-09-14T02:24:07.023Z,100865.91
2018-09-14T02:26:35.863Z,100869.91
2018-09-14T02:29:04.841Z,100864.71
2018-09-14T02:31:33.921Z,100863.98
2018-09-14T02:34:03.263Z,100860.23
2018-09-14T02:36:36.030Z,100849.69
2018-09-14T02:39:06.747Z,100847.75
2018-09-14T02:41:36.456Z,100847.64
2018-09-14T02:44:06.338Z,100850.07
2018-09-14T02:46:35.390Z,100851.02
2018-09-14T02:49:04.219Z,100858.19
2018-09-14T02:51:33.074Z,100864.34
2018-09-14T02:54:03.627Z,100860.00
2018-09-14T02:56:32.414Z,100852.14
2018-09-14T02:59:01.314Z,100857.81
2018-09-14T03:01:30.715Z,100856.12
2018-09-14T03:03:59.518Z,100863.25
2018-09-14T03:06:28.365Z,100862.06
2018-09-14T03:08:58.452Z,100866.65
2018-09-14T03:11:27.272Z,100865.67
2018-09-14T03:13:57.077Z,100863.87
2018-09-14T03:16:26.029Z,100867.13
2018-09-14T03:18:54.876Z,100862.91
2018-09-14T03:21:24.012Z,100868.83
2018-09-14T03:23:52.821Z,100863.02
2018-09-14T03:26:21.645Z,100867.00
2018-09-14T03:28:50.691Z,100862.53
2018-09-14T03:31:19.493Z,100863.02
2018-09-14T03:33:48.582Z,100856.72
2018-09-14T03:36:18.100Z,100864.83
2018-09-14T03:38:46.907Z,100863.16
2018-09-14T03:41:16.054Z,100862.53
2018-09-14T03:43:44.894Z,100862.42
2018-09-14T03:46:13.709Z,100858.55
2018-09-14T03:48:42.525Z,100860.61
2018-09-14T03:51:16.647Z,100862.06
2018-09-14T03:53:47.423Z,100867.38
2018-09-14T03:56:16.425Z,100868.34
2018-09-14T03:58:45.614Z,100866.05
2018-09-14T04:01:14.640Z,100868.23
2018-09-14T04:03:43.512Z,100872.20
2018-09-14T04:06:18.965Z,100876.79
2018-09-14T04:08:47.901Z,100870.62
2018-09-14T04:11:16.735Z,100873.43
2018-09-14T04:13:45.812Z,100876.69
2018-09-14T04:16:14.685Z,100880.33
2018-09-14T04:18:47.624Z,100881.38
2018-09-14T04:21:16.727Z,100879.70
2018-09-14T04:23:45.594Z,100871.74
2018-09-14T04:26:14.537Z,100876.46
2018-09-14T04:28:44.485Z,100876.06
2018-09-14T04:31:13.333Z,100874.13
2018-09-14T04:33:42.133Z,100869.08
2018-09-14T04:36:10.968Z,100866.54
2018-09-14T04:38:40.198Z,100867.13
2018-09-14T04:43:32.661Z,100872.34
2018-09-14T04:46:02.911Z,100876.09
2018-09-14T04:48:32.033Z,100878.49
2018-09-14T04:51:00.964Z,100887.56
2018-09-14T04:53:30.408Z,100888.90
2018-09-14T04:56:00.330Z,100890.77
2018-09-14T04:58:29.369Z,100898.62
2018-09-14T05:00:58.289Z,100894.50
2018-09-14T05:03:27.393Z,100896.44
2018-09-14T05:06:01.824Z,100892.70
2018-09-14T05:08:30.672Z,100893.20
2018-09-14T05:11:02.648Z,100896.02
2018-09-14T05:13:31.694Z,100896.50
2018-09-14T05:18:34.393Z,100901.05
2018-09-14T05:21:03.499Z,100891.02
2018-09-14T05:23:32.389Z,100897.00
2018-09-14T05:26:01.219Z,100900.61
2018-09-14T05:28:30.385Z,100894.72
2018-09-14T05:30:59.693Z,100899.05
2018-09-14T05:33:28.754Z,100896.77
2018-09-14T05:35:58.104Z,100893.98
2018-09-14T05:38:29.241Z,100898.22
2018-09-14T05:40:58.208Z,100903.28
2018-09-14T05:43:27.519Z,100900.75
2018-09-14T05:46:00.433Z,100912.50
2018-09-14T05:48:29.844Z,100905.23
2018-09-14T05:51:20.816Z,100906.21
2018-09-14T05:53:50.089Z,100910.20
2018-09-14T05:56:20.227Z,100907.28
2018-09-14T05:58:49.611Z,100908.14
2018-09-14T06:01:18.701Z,100902.34
2018-09-14T06:03:47.978Z,100907.41
2018-09-14T06:06:17.723Z,100910.80
2018-09-14T06:08:46.917Z,100921.45
2018-09-14T06:13:58.482Z,100913.08
2018-09-14T06:16:27.701Z,100920.84
2018-09-14T06:19:02.716Z,100926.88
2018-09-14T06:21:32.360Z,100933.44
2018-09-14T06:24:01.623Z,100931.85
2018-09-14T06:26:30.838Z,100932.70
2018-09-14T06:29:04.886Z,100929.08
2018-09-14T06:31:34.224Z,100930.78
2018-09-14T06:34:08.765Z,100927.76
2018-09-14T06:36:38.323Z,100921.20
2018-09-14T06:39:10.281Z,100928.95
2018-09-14T06:41:39.458Z,100926.27
2018-09-14T06:44:09.058Z,100925.94
2018-09-14T06:46:44.223Z,100929.70
2018-09-14T06:49:13.930Z,100935.86
2018-09-14T06:51:43.088Z,100929.45
2018-09-14T06:54:12.325Z,100933.53
2018-09-14T06:56:41.574Z,100928.31
2018-09-14T06:59:10.685Z,100930.97
2018-09-14T07:01:40.183Z,100929.41
2018-09-14T07:04:09.908Z,100929.86
2018-09-14T07:06:39.007Z,100939.81
2018-09-14T07:09:09.439Z,100934.31
2018-09-14T07:11:44.507Z,100935.44
2018-09-14T07:14:13.699Z,100938.09
2018-09-14T07:16:43.497Z,100943.06
2018-09-14T07:19:13.047Z,100942.58
2018-09-14T07:21:43.054Z,100943.75
2018-09-14T07:24:12.681Z,100946.66
2018-09-14T07:26:41.740Z,100949.67
2018-09-14T07:29:11.011Z,100945.94
2018-09-14T07:31:42.499Z,100948.92
2018-09-14T07:34:18.076Z,100953.64
2018-09-14T07:36:47.248Z,100953.53
2018-09-14T07:39:22.249Z,100954.46
2018-09-14T07:41:51.545Z,100958.43
2018-09-14T07:44:21.003Z,100960.38
2018-09-14T07:46:55.390Z,100961.95
2018-09-14T07:49:24.971Z,100957.67
2018-09-14T07:54:20.322Z,100959.44
2018-09-14T07:56:49.196Z,100966.05
2018-09-14T07:59:18.346Z,100966.29
2018-09-14T08:01:47.220Z,100971.35
2018-09-14T08:04:21.650Z,100969.97
2018-09-14T08:06:50.796Z,100967.96
2018-09-14T08:09:23.690Z,100963.09
2018-09-14T08:11:52.668Z,100960.02
2018-09-14T08:14:21.898Z,100959.72
2018-09-14T08:16:50.948Z,100961.36
2018-09-14T08:19:19.950Z,100961.36
2018-09-14T08:21:49.149Z,100975.59
2018-09-14T08:24:18.100Z,100977.92
2018-09-14T08:26:47.515Z,100977.30
2018-09-14T08:29:18.804Z,100977.41
2018-09-14T08:31:47.647Z,100975.87
2018-09-14T08:34:16.743Z,100974.56
2018-09-14T08:36:49.521Z,100970.56
2018-09-14T08:39:18.825Z,100975.14
2018-09-14T08:41:48.510Z,100980.80
2018-09-14T08:44:18.789Z,100981.99
2018-09-14T08:46:48.076Z,100984.40
2018-09-14T08:49:17.173Z,100980.75
2018-09-14T08:51:46.655Z,100980.56
2018-09-14T08:54:15.807Z,100981.63
2018-09-14T08:56:49.636Z,100985.31
2018-09-14T08:59:19.059Z,100986.59
2018-09-14T09:01:59.505Z,100993.69
2018-09-14T09:04:28.884Z,100992.73
2018-09-14T09:07:03.554Z,100993.33
2018-09-14T09:09:32.469Z,100993.28
2018-09-14T09:12:02.142Z,100993.63
2018-09-14T09:14:31.000Z,100985.02
2018-09-14T09:16:59.918Z,100985.17
2018-09-14T09:19:29.060Z,100983.41
2018-09-14T09:21:59.257Z,100971.47
2018-09-14T09:24:28.102Z,100980.23
2018-09-14T09:26:57.318Z,100979.27
2018-09-14T09:29:27.815Z,100979.27
2018-09-14T09:31:56.731Z,100983.52
2018-09-14T09:34:27.095Z,100982.39
2018-09-14T09:36:56.685Z,100981.75
2018-09-14T09:39:25.789Z,100979.05
2018-09-14T09:41:55.465Z,100981.61
2018-09-14T09:44:24.316Z,100991.47
2018-09-14T09:46:53.310Z,100977.70
2018-09-14T09:49:22.613Z,100987.72
2018-09-14T09:51:51.554Z,100987.42
2018-09-14T09:54:23.526Z,100986.51
2018-09-14T09:56:53.771Z,100985.08
2018-09-14T09:59:22.695Z,100982.87
2018-09-14T10:01:58.529Z,100980.34
2018-09-14T10:04:32.773Z,100980.50
2018-09-14T10:07:01.988Z,100979.47
2018-09-14T10:09:30.829Z,100985.38
2018-09-14T10:12:00.146Z,100984.71
2018-09-14T10:14:29.253Z,100986.81
2018-09-14T10:16:58.374Z,100985.87
2018-09-14T10:19:27.582Z,100983.89
2018-09-14T10:21:56.585Z,100981.45
2018-09-14T10:24:26.419Z,100993.66
2018-09-14T10:26:55.990Z,100986.85
2018-09-14T10:29:24.917Z,100980.31
2018-09-14T10:31:53.801Z,100980.46
2018-09-14T10:34:22.922Z,100978.84
2018-09-14T10:36:51.955Z,100974.57
2018-09-14T10:39:24.007Z,100977.67
2018-09-14T10:41:53.241Z,100976.23
2018-09-14T10:44:27.820Z,100972.97
2018-09-14T10:46:56.719Z,100964.41
2018-09-14T10:49:26.053Z,100962.94
2018-09-14T10:51:55.158Z,100961.09
2018-09-14T10:54:30.414Z,100953.64
2018-09-14T10:56:59.384Z,100957.03
2018-09-14T10:59:28.680Z,100958.77
2018-09-14T11:01:57.917Z,100953.81
2018-09-14T11:04:26.872Z,100958.76
2018-09-14T11:06:55.943Z,100951.53
2018-09-14T11:09:25.185Z,100951.55
2018-09-14T11:11:54.222Z,100947.88
2018-09-14T11:14:24.837Z,100954.14
2018-09-14T11:16:54.079Z,100939.52
2018-09-14T11:19:22.937Z,100943.65
2018-09-14T11:21:52.899Z,100939.45
2018-09-14T11:24:21.837Z,100942.91
2018-09-14T11:26:50.696Z,100939.06
2018-09-14T11:29:20.962Z,100937.28
2018-09-14T11:31:49.975Z,100937.11
2018-09-14T11:34:19.768Z,100928.33
2018-09-14T11:36:48.986Z,100928.19
2018-09-14T11:39:23.150Z,100929.91
2018-09-14T11:41:52.105Z,100926.18
2018-09-14T11:45:24.000Z,100927.41
2018-09-14T11:47:52.854Z,100919.72
2018-09-14T11:50:22.108Z,100921.66
2018-09-14T11:52:51.831Z,100919.05
2018-09-14T11:55:20.756Z,100916.73
2018-09-14T11:57:50.661Z,100909.36
2018-09-14T12:00:19.538Z,100911.52
2018-09-14T12:02:58.901Z,100911.27
2018-09-14T12:08:34.098Z,100907.34
2018-09-14T12:13:49.649Z,100902.56
2018-09-14T12:16:18.762Z,100901.16
2018-09-14T12:18:47.809Z,100909.78
2018-09-14T12:21:16.910Z,100902.22
2018-09-14T12:23:52.638Z,100901.73
2018-09-14T12:26:24.865Z,100890.78
2018-09-14T12:28:55.857Z,100890.88
2018-09-14T12:31:25.067Z,100885.23
2018-09-14T12:33:54.498Z,100883.69
2018-09-14T12:36:23.496Z,100892.66
2018-09-14T12:38:52.504Z,100882.67
2018-09-14T12:41:22.090Z,100889.44
2018-09-14T12:43:52.450Z,100891.95
2018-09-14T12:46:21.659Z,100886.58
2018-09-14T12:48:58.182Z,100885.63
2018-09-14T12:51:27.226Z,100882.45
2018-09-14T12:53:57.836Z,100884.37
2018-09-14T12:56:27.088Z,100879.06
2018-09-14T12:58:56.873Z,100883.40
2018-09-14T13:01:29.652Z,100876.71
2018-09-14T13:03:58.726Z,100888.13
2018-09-14T13:06:29.096Z,100890.27
2018-09-14T13:11:39.346Z,100878.73
2018-09-14T13:14:11.248Z,100885.15
2018-09-14T13:16:45.994Z,100882.03
2018-09-14T13:19:15.234Z,100883.38
2018-09-14T13:21:45.139Z,100878.52
2018-09-14T13:24:14.551Z,100875.98
2018-09-14T13:26:47.221Z,100870.23
2018-09-14T13:29:16.299Z,100866.71
2018-09-14T13:31:45.390Z,100860.33
2018-09-14T13:34:14.847Z,100856.63
2018-09-14T13:36:44.085Z,100854.58
2018-09-14T13:39:13.193Z,100851.23
2018-09-14T13:41:57.342Z,100844.10
2018-09-14T13:44:26.531Z,100843.30
2018-09-14T13:46:56.198Z,100839.34
2018-09-14T13:49:30.653Z,100838.37
2018-09-14T13:51:59.777Z,100830.09
2018-09-14T13:54:29.305Z,100834.73
2018-09-14T13:56:58.498Z,100827.95
2018-09-14T13:59:27.765Z,100834.36
2018-09-14T14:01:57.310Z,100832.35
2018-09-14T14:04:26.483Z,100830.83
2018-09-14T14:06:56.451Z,100834.58
2018-09-14T14:09:27.041Z,100822.23
2018-09-14T14:11:56.360Z,100828.19
2018-09-14T14:14:29.121Z,100830.06
2018-09-14T14:16:59.044Z,100829.61
2018-09-14T14:19:28.270Z,100827.98
2018-09-14T14:21:57.581Z,100826.63
2018-09-14T14:24:31.924Z,100817.08
2018-09-14T14:27:01.404Z,100815.33
2018-09-14T14:29:30.499Z,100806.16
2018-09-14T14:34:40.692Z,100804.58
2018-09-14T14:37:09.736Z,100801.46
2018-09-14T14:39:40.343Z,100798.01
2018-09-14T14:42:14.175Z,100803.70
2018-09-14T14:44:43.519Z,100800.20
2018-09-14T14:47:16.132Z,100800.19
2018-09-14T14:49:45.240Z,100796.40
2018-09-14T14:52:14.369Z,100799.69
2018-09-14T14:54:43.798Z,100795.02
2018-09-14T14:57:12.964Z,100791.38
2018-09-14T14:59:42.369Z,100788.48
2018-09-14T15:02:13.802Z,100780.20
2018-09-14T15:04:42.973Z,100782.75
2018-09-14T15:07:16.758Z,100770.30
2018-09-14T15:09:46.471Z,100778.63
2018-09-14T15:12:21.515Z,100777.22
2018-09-14T15:14:50.645Z,100779.56
2018-09-14T15:17:23.533Z,100773.13
2018-09-14T15:19:52.718Z,100778.84
2018-09-14T15:22:24.942Z,100775.31
2018-09-14T15:24:54.107Z,100774.97
2018-09-14T15:27:23.497Z,100775.33
2018-09-14T15:32:27.535Z,100771.80
2018-09-14T15:34:56.903Z,100780.46
2018-09-14T15:37:26.164Z,100785.91
2018-09-14T15:40:01.285Z,100780.30
2018-09-14T15:42:30.573Z,100788.28
2018-09-14T15:47:39.742Z,100789.67
2018-09-14T15:50:09.465Z,100788.77
2018-09-14T15:52:38.505Z,100776.51
2018-09-14T15:55:12.673Z,100785.92
2018-09-14T15:57:45.136Z,100795.16
2018-09-14T16:00:14.296Z,100797.70
2018-09-14T16:02:43.613Z,100789.14
2018-09-14T16:05:12.778Z,100783.41
2018-09-14T16:07:41.966Z,100788.11
2018-09-14T16:10:11.121Z,100786.95
2018-09-14T16:12:41.693Z,100790.44
2018-09-14T16:15:15.883Z,100787.68
2018-09-14T16:17:45.481Z,100791.95
2018-09-14T16:20:14.983Z,100789.38
2018-09-14T16:22:44.324Z,100794.95
2018-09-14T16:25:13.727Z,100789.61
2018-09-14T16:27:46.472Z,100791.14
2018-09-14T16:30:15.969Z,100797.06
2018-09-14T16:32:48.896Z,100803.08
2018-09-14T16:35:19.480Z,100804.22
2018-09-14T16:37:51.713Z,100798.36
2018-09-14T16:40:21.244Z,100795.44
2018-09-14T16:42:50.515Z,100800.13
2018-09-14T16:45:23.750Z,100799.50
2018-09-14T16:47:53.362Z,100799.11
2018-09-14T16:50:25.767Z,100806.90
2018-09-14T16:52:55.008Z,100806.14
2018-09-14T16:55:24.976Z,100799.54
2018-09-14T16:57:55.480Z,100805.84
2018-09-14T17:00:24.627Z,100807.78
2018-09-14T17:02:56.368Z,100812.27
2018-09-14T17:05:27.373Z,100819.70
2018-09-14T17:07:56.709Z,100816.92
2018-09-14T17:10:26.360Z,100814.80
2018-09-14T17:12:55.885Z,100816.28
2018-09-14T17:15:25.229Z,100814.89
2018-09-14T17:17:58.099Z,100816.54
2018-09-14T17:20:27.752Z,100821.73
2018-09-14T17:22:58.104Z,100812.41
2018-09-14T17:25:28.825Z,100820.50
2018-09-14T17:27:57.967Z,100819.00
2018-09-14T17:30:27.233Z,100811.88
2018-09-14T17:32:56.675Z,100818.67
2018-09-14T17:35:32.018Z,100813.78
2018-09-14T17:38:03.345Z,100823.53
2018-09-14T17:40:33.879Z,100827.70
2018-09-14T17:43:03.080Z,100820.80
2018-09-14T17:45:32.207Z,100822.53
2018-09-14T17:48:04.235Z,100823.44
2018-09-14T17:50:36.698Z,100829.26
2018-09-14T17:53:09.111Z,100825.42
2018-09-14T17:55:38.691Z,100827.83
2018-09-14T17:58:11.615Z,100830.27
2018-09-14T18:00:40.943Z,100829.16
2018-09-14T18:03:12.677Z,100825.64
2018-09-14T18:05:42.974Z,100832.33
2018-09-14T18:08:12.093Z,100833.51
2018-09-14T18:10:46.913Z,100832.60
2018-09-14T18:13:16.098Z,100833.73
2018-09-14T18:15:45.137Z,100836.36
2018-09-14T18:18:20.357Z,100833.95
2018-09-14T18:20:49.733Z,100840.13
2018-09-14T18:23:18.885Z,100834.58
2018-09-14T18:25:55.195Z,100848.30
2018-09-14T18:28:24.345Z,100852.52
2018-09-14T18:30:53.595Z,100862.66
2018-09-14T18:33:27.396Z,100859.23
2018-09-14T18:35:56.875Z,100861.59
2018-09-14T18:38:26.160Z,100860.61
2018-09-14T18:40:58.392Z,100864.00
2018-09-14T18:43:29.363Z,100859.16
2018-09-14T18:45:59.602Z,100869.64
2018-09-14T18:48:29.434Z,100878.58
2018-09-14T18:50:58.612Z,100868.22
2018-09-14T18:53:27.729Z,100867.73
2018-09-14T18:58:34.599Z,100868.92
2018-09-14T19:01:08.685Z,100871.24
2018-09-14T19:03:38.618Z,100870.41
2018-09-14T19:06:09.295Z,100875.50
2018-09-14T19:08:39.977Z,100874.98
2018-09-14T19:11:10.078Z,100869.56
2018-09-14T19:13:40.428Z,100875.19
2018-09-14T19:16:10.374Z,100884.21
2018-09-14T19:18:40.425Z,100879.06
2018-09-14T19:21:10.981Z,100889.15
2018-09-14T19:23:40.318Z,100889.92
2018-09-14T19:26:15.002Z,100892.95
2018-09-14T19:28:44.042Z,100881.41
2018-09-14T19:31:15.547Z,100887.46
2018-09-14T19:33:45.145Z,100891.37
2018-09-14T19:36:14.301Z,100891.94
2018-09-14T19:38:47.014Z,100888.09
2018-09-14T19:41:16.329Z,100890.67
2018-09-14T19:43:48.156Z,100895.32
2018-09-14T19:46:17.454Z,100885.59
2018-09-14T19:48:47.263Z,100890.11
2018-09-14T19:51:16.502Z,100891.17
2018-09-14T19:53:45.616Z,100887.71
2018-09-14T19:56:16.750Z,100889.88
2018-09-14T19:58:45.853Z,100895.69
2018-09-14T20:01:15.184Z,100895.83
2018-09-14T20:03:45.783Z,100901.31
2018-09-14T20:06:14.962Z,100890.45
2018-09-14T20:08:44.053Z,100902.92
2018-09-14T20:11:13.780Z,100902.72
2018-09-14T20:13:43.039Z,100906.59
2018-09-14T20:16:12.259Z,100912.72
2018-09-14T20:18:42.012Z,100911.79
2018-09-14T20:21:11.462Z,100909.53
2018-09-14T20:23:40.462Z,100914.46
2018-09-14T20:26:09.939Z,100918.61
2018-09-14T20:28:39.054Z,100913.41
2018-09-14T20:31:08.280Z,100913.95
2018-09-14T20:33:37.776Z,100910.52
2018-09-14T20:36:06.781Z,100913.11
2018-09-14T20:38:35.904Z,100908.82
2018-09-14T20:41:05.373Z,100910.80
2018-09-14T20:43:34.505Z,100917.48
2018-09-14T20:46:04.238Z,100915.09
2018-09-14T20:48:33.871Z,100906.14
2018-09-14T20:51:03.067Z,100912.63
2018-09-14T20:53:33.301Z,100910.43
2018-09-14T20:56:03.365Z,100918.46
2018-09-14T20:58:33.173Z,100915.58
2018-09-14T21:01:08.846Z,100917.48
2018-09-14T21:03:38.022Z,100912.89
2018-09-14T21:06:07.090Z,100910.22
2018-09-14T21:08:36.681Z,100910.52
2018-09-14T21:11:05.795Z,100909.40
2018-09-14T21:13:35.029Z,100917.83
2018-09-14T21:16:06.589Z,100913.59
2018-09-14T21:18:35.724Z,100921.08
2018-09-14T21:21:04.952Z,100919.38
2018-09-14T21:23:34.391Z,100922.41
2018-09-14T21:26:10.214Z,100927.86
2018-09-14T21:28:39.605Z,100927.22
2018-09-14T21:31:09.237Z,100927.22
2018-09-14T21:33:38.240Z,100928.41
2018-09-14T21:36:08.901Z,100930.53
2018-09-14T21:38:37.893Z,100935.09
2018-09-14T21:41:07.038Z,100940.18
2018-09-14T21:43:36.434Z,100948.41
2018-09-14T21:46:06.341Z,100949.27
2018-09-14T21:48:35.471Z,100944.27
2018-09-14T21:51:04.870Z,100946.45
2018-09-14T21:53:36.997Z,100944.55
2018-09-14T21:56:06.045Z,100945.45
2018-09-14T21:58:35.489Z,100952.58
2018-09-14T22:01:09.011Z,100955.10
2018-09-14T22:03:38.031Z,100962.02
2018-09-14T22:06:07.688Z,100960.88
2018-09-14T22:08:36.751Z,100958.14
2018-09-14T22:11:05.768Z,100960.60
2018-09-14T22:13:46.690Z,100960.67
2018-09-14T22:16:15.697Z,100957.14
2018-09-14T22:18:45.031Z,100961.71
2018-09-14T22:21:14.070Z,100964.97
2018-09-14T22:23:43.271Z,100965.67
2018-09-14T22:26:12.818Z,100967.62
2018-09-14T22:28:41.886Z,100961.64
2018-09-14T22:31:10.902Z,100967.63
2018-09-14T22:33:40.209Z,100979.56
2018-09-14T22:36:09.229Z,100968.86
2018-09-14T22:38:38.497Z,100972.54
2018-09-14T22:41:07.866Z,100976.33
2018-09-14T22:43:36.921Z,100981.34
2018-09-14T22:46:07.271Z,100986.31
2018-09-14T22:48:36.676Z,100988.65
2018-09-14T22:51:05.816Z,100991.98
2018-09-14T22:53:35.014Z,100996.31
2018-09-14T22:56:10.852Z,100992.59
2018-09-14T22:58:39.981Z,101004.39
2018-09-14T23:01:18.771Z,101000.49
2018-09-14T23:03:48.856Z,101006.18
2018-09-14T23:06:17.939Z,101004.84
2018-09-14T23:08:47.022Z,101016.01
2018-09-14T23:11:16.157Z,101019.64
2018-09-14T23:13:45.416Z,101017.16
2018-09-14T23:16:14.513Z,101024.17
2018-09-14T23:18:43.589Z,101028.66
2018-09-14T23:21:12.984Z,101027.67
2018-09-14T23:23:42.014Z,101029.00
2018-09-14T23:26:13.529Z,101032.70
2018-09-14T23:28:42.980Z,101032.17
2018-09-14T23:31:11.911Z,101026.61
2018-09-14T23:33:40.981Z,101032.93
2018-09-14T23:36:10.204Z,101033.31
2018-09-14T23:38:40.224Z,101033.31
2018-09-14T23:41:09.362Z,101027.13
2018-09-14T23:43:43.529Z,101035.13
2018-09-14T23:46:12.489Z,101027.64
2018-09-14T23:48:43.643Z,101034.99
2018-09-14T23:51:13.043Z,101034.27
2018-09-14T23:53:42.021Z,101035.12
2018-09-14T23:56:14.141Z,101044.14
2018-09-14T23:58:43.925Z,101046.95
